AirNav   Everest Fuels
 
 718 users online  

59MI Janski Heliport
Marine City, Michigan, USA

GOING TO MARINE CITY?


FAA INFORMATION EFFECTIVE 07 NOVEMBER 2019

Location

FAA Identifier: 59MI
Lat/Long: 42-41-30.1100N 082-33-26.6700W
42-41.501833N 082-33.444500W
42.6916972,-82.5574083
(estimated)
Elevation: 850 ft. / 259 m (estimated)
Variation: 07W (1995)
From city: 5 miles E of MARINE CITY, MI
Time zone: UTC -5 (UTC -4 during Daylight Saving Time)
Zip code: 48039

Heliport Operations

Heliport use: Private use. Permission required prior to landing
Activation date: 08/1998
Control tower: no
ARTCC: CLEVELAND CENTER
FSS: LANSING FLIGHT SERVICE STATION
Attendance: UNATNDD
Wind indicator: yes
Segmented circle: yes

Heliport Communications

WX AWOS-3 at PHN (13 nm N): 118.375 (810-364-7787)

Nearby radio navigation aids

VOR radial/distance  VOR name  Freq  Var
YQGr030/29.1WINDSOR VOR/DME113.8006W

 
NDB name  Hdg/Dist  Freq  Var  ID
PHURN176/9.233207WPH .--. ....

Heliport Services

Runway Information

Helipad H1

Dimensions: 50 x 50 ft. / 15 x 15 m
Surface: concrete
Traffic pattern: leftleft

Heliport Ownership and Management from official FAA records

Ownership: Privately-owned
Owner: GREG JANSKI
6360 BROAD BRIDGE
MARINE CITY, MI 48039
Phone 810-765-1865
Manager: GREG JANSKI
6360 BROAD BRIDGE
MARINE CITY, MI 48039
Phone 810-765-1865

Heliport Operational Statistics

Aircraft based on the field: 1
Helicopters: 1
    

Additional Remarks

A52-H1 35 FT BLDG 100 FT S; 20 FT TREES 50 FT S.
FOR CD CTC CLEVELAND ARTCC AT 440-774-0490.

Instrument Procedures

There are no published instrument procedures at 59MI.

Some nearby airports with instrument procedures:

KMTC - Selfridge Air National Guard Base (13 nm W)
KPHN - St Clair County International Airport (13 nm N)
57D - Ray Community Airport (15 nm W)
D98 - Romeo State Airport (19 nm W)
KDET - Coleman A Young Municipal Airport (26 nm SW)
 
Loc | Ops | Rwys | IFR | FBO | Links
Com | Nav | Svcs | Stats | Notes
Area around 59MI (Janski Heliport)
 
Road maps at: MapQuest Bing Google
 
Aerial photo
No photo
 
Sectional chart

 
Airport distance calculator
Flying to Janski Heliport? Find the distance to fly.

From to 59MI

Sunrise and sunset
Times for 15-Nov-2019
 Local
(UTC-5)
 Zulu
(UTC)
Morning civil twilight06:5311:53
Sunrise07:2312:23
Sunset17:0722:07
Evening civil twilight17:3722:37

Current date and time
Zulu (UTC)  16-Nov-2019 02:14:44
Local (UTC-5)  15-Nov-2019 21:14:44
 
METAR
KMTC 
12nm W 
152356Z 00000KT 6SM HZ CLR M01/M04 A3037 RMK SLP299 WND DATA ESTMD ALSTG/SLP ESTMD 4/002 51017
KPHN 
14nm N 
160137Z AUTO 30003KT 10SM OVC039 00/M04 A3039 RMK AO2
CYZR 
21nm NE 
160100Z AUTO 02013KT 300V040 9SM BKN029 OVC039 02/M03 A3036 RMK RVR MISG SLP291
TAF
KMTC 
12nm W 
152045Z 1520/1623 VRB06KT 9999 SCT015 QNH3022INS TEMPO 1520/1523 BKN015 620155 BECMG 1600/1601 VRB06KT 9999 BKN020 620204 QNH3035INS BECMG 1611/1612 06009KT 9999 FEW020 QNH3046INS TX05/1522Z TNM08/1612Z
NOTAMs
Click for the latest NOTAMs
NOTAMs are issued by the DoD/FAA and will open in a separate window not controlled by AirNav.

 

 
 

Would you like to see your business listed on this page?

 If your business provides an interesting product or service to pilots, flight crews, aircraft, or users of the Janski Heliport, you should consider listing it here.  To start the listing process, click on the button below
 
Add a business
 

Other Pages about Janski Heliport

Update a link
 
Copyright © AirNav, LLC. All rights reserved. Privacy Policy  Contact